sensor_id;sensor_type;location;lat;lon;timestamp;P1;durP1;ratioP1;P2;durP2;ratioP2
29240;SDS011;16268;49.880;8.648;2023-04-25T00:00:35;7.53;;;3.90;;
29240;SDS011;16268;49.880;8.648;2023-04-25T00:03:00;5.25;;;3.72;;
29240;SDS011;16268;49.880;8.648;2023-04-25T00:05:26;6.50;;;4.10;;
29240;SDS011;16268;49.880;8.648;2023-04-25T00:07:52;6.50;;;4.10;;
29240;SDS011;16268;49.880;8.648;2023-04-25T00:10:18;6.15;;;4.10;;
29240;SDS011;16268;49.880;8.648;2023-04-25T00:12:45;6.15;;;4.35;;
29240;SDS011;16268;49.880;8.648;2023-04-25T00:15:11;6.55;;;4.47;;
29240;SDS011;16268;49.880;8.648;2023-04-25T00:17:37;11.07;;;4.75;;
29240;SDS011;16268;49.880;8.648;2023-04-25T00:20:03;7.78;;;4.80;;
29240;SDS011;16268;49.880;8.648;2023-04-25T00:22:30;7.88;;;4.68;;
29240;SDS011;16268;49.880;8.648;2023-04-25T00:24:59;7.43;;;4.78;;
29240;SDS011;16268;49.880;8.648;2023-04-25T00:27:25;6.97;;;4.85;;
29240;SDS011;16268;49.880;8.648;2023-04-25T00:29:51;8.23;;;4.72;;
29240;SDS011;16268;49.880;8.648;2023-04-25T00:32:17;7.00;;;4.70;;
29240;SDS011;16268;49.880;8.648;2023-04-25T00:34:42;6.82;;;4.85;;
29240;SDS011;16268;49.880;8.648;2023-04-25T00:37:08;7.43;;;4.85;;
29240;SDS011;16268;49.880;8.648;2023-04-25T00:39:35;7.05;;;4.57;;
29240;SDS011;16268;49.880;8.648;2023-04-25T00:42:00;7.25;;;4.95;;
29240;SDS011;16268;49.880;8.648;2023-04-25T00:44:27;7.10;;;4.95;;
29240;SDS011;16268;49.880;8.648;2023-04-25T00:46:54;5.90;;;4.50;;
29240;SDS011;16268;49.880;8.648;2023-04-25T00:49:20;8.40;;;5.03;;
29240;SDS011;16268;49.880;8.648;2023-04-25T00:51:46;6.40;;;4.70;;
29240;SDS011;16268;49.880;8.648;2023-04-25T00:54:12;7.32;;;5.28;;
29240;SDS011;16268;49.880;8.648;2023-04-25T00:56:38;7.80;;;5.10;;
29240;SDS011;16268;49.880;8.648;2023-04-25T00:59:04;7.95;;;5.55;;
29240;SDS011;16268;49.880;8.648;2023-04-25T01:01:30;11.30;;;5.28;;
29240;SDS011;16268;49.880;8.648;2023-04-25T01:03:56;9.20;;;5.68;;
29240;SDS011;16268;49.880;8.648;2023-04-25T01:06:23;9.10;;;5.82;;
29240;SDS011;16268;49.880;8.648;2023-04-25T01:08:49;9.88;;;5.57;;
29240;SDS011;16268;49.880;8.648;2023-04-25T01:11:15;8.05;;;5.78;;
29240;SDS011;16268;49.880;8.648;2023-04-25T01:13:41;8.60;;;5.35;;
29240;SDS011;16268;49.880;8.648;2023-04-25T01:16:07;9.70;;;5.70;;
29240;SDS011;16268;49.880;8.648;2023-04-25T01:18:32;7.40;;;5.20;;
29240;SDS011;16268;49.880;8.648;2023-04-25T01:21:08;8.75;;;5.47;;
29240;SDS011;16268;49.880;8.648;2023-04-25T01:23:41;8.07;;;5.80;;
29240;SDS011;16268;49.880;8.648;2023-04-25T01:26:08;8.65;;;5.63;;
29240;SDS011;16268;49.880;8.648;2023-04-25T01:28:35;8.18;;;5.88;;
29240;SDS011;16268;49.880;8.648;2023-04-25T01:31:02;8.63;;;5.72;;
29240;SDS011;16268;49.880;8.648;2023-04-25T01:33:28;10.02;;;5.85;;
29240;SDS011;16268;49.880;8.648;2023-04-25T01:35:54;7.53;;;5.78;;
29240;SDS011;16268;49.880;8.648;2023-04-25T01:38:20;9.43;;;5.90;;
29240;SDS011;16268;49.880;8.648;2023-04-25T01:40:46;9.73;;;5.80;;
29240;SDS011;16268;49.880;8.648;2023-04-25T01:43:12;10.25;;;5.90;;
29240;SDS011;16268;49.880;8.648;2023-04-25T01:45:39;9.98;;;6.20;;
29240;SDS011;16268;49.880;8.648;2023-04-25T01:48:06;9.02;;;6.55;;
29240;SDS011;16268;49.880;8.648;2023-04-25T01:53:02;8.35;;;5.97;;
29240;SDS011;16268;49.880;8.648;2023-04-25T01:55:28;9.45;;;6.50;;
29240;SDS011;16268;49.880;8.648;2023-04-25T01:57:54;9.25;;;6.60;;
29240;SDS011;16268;49.880;8.648;2023-04-25T02:00:19;8.73;;;6.18;;
29240;SDS011;16268;49.880;8.648;2023-04-25T02:02:46;7.97;;;5.93;;
29240;SDS011;16268;49.880;8.648;2023-04-25T02:05:11;8.20;;;5.82;;
29240;SDS011;16268;49.880;8.648;2023-04-25T02:07:37;8.02;;;5.90;;
29240;SDS011;16268;49.880;8.648;2023-04-25T02:10:06;9.43;;;5.90;;
29240;SDS011;16268;49.880;8.648;2023-04-25T02:12:31;8.05;;;5.45;;
29240;SDS011;16268;49.880;8.648;2023-04-25T02:14:57;7.80;;;5.90;;
29240;SDS011;16268;49.880;8.648;2023-04-25T02:17:23;8.73;;;5.88;;
29240;SDS011;16268;49.880;8.648;2023-04-25T02:19:48;7.90;;;5.93;;
29240;SDS011;16268;49.880;8.648;2023-04-25T02:22:15;8.18;;;6.10;;
29240;SDS011;16268;49.880;8.648;2023-04-25T02:24:40;10.02;;;6.45;;
29240;SDS011;16268;49.880;8.648;2023-04-25T02:27:06;9.32;;;6.55;;
29240;SDS011;16268;49.880;8.648;2023-04-25T02:29:32;9.10;;;6.15;;
29240;SDS011;16268;49.880;8.648;2023-04-25T02:31:58;8.18;;;5.82;;
29240;SDS011;16268;49.880;8.648;2023-04-25T02:34:23;8.68;;;6.10;;
29240;SDS011;16268;49.880;8.648;2023-04-25T02:36:49;8.95;;;6.97;;
29240;SDS011;16268;49.880;8.648;2023-04-25T02:39:17;9.82;;;7.30;;
29240;SDS011;16268;49.880;8.648;2023-04-25T02:41:43;8.30;;;6.50;;
29240;SDS011;16268;49.880;8.648;2023-04-25T02:44:09;9.95;;;7.18;;
29240;SDS011;16268;49.880;8.648;2023-04-25T02:46:34;9.90;;;6.80;;
29240;SDS011;16268;49.880;8.648;2023-04-25T02:49:00;10.38;;;7.65;;
29240;SDS011;16268;49.880;8.648;2023-04-25T02:51:25;9.25;;;6.82;;
29240;SDS011;16268;49.880;8.648;2023-04-25T02:53:51;9.68;;;7.13;;
29240;SDS011;16268;49.880;8.648;2023-04-25T02:56:17;9.35;;;7.18;;
29240;SDS011;16268;49.880;8.648;2023-04-25T02:58:42;9.90;;;7.25;;
29240;SDS011;16268;49.880;8.648;2023-04-25T03:01:08;11.88;;;7.53;;
29240;SDS011;16268;49.880;8.648;2023-04-25T03:03:34;12.02;;;8.10;;
29240;SDS011;16268;49.880;8.648;2023-04-25T03:05:59;12.20;;;7.78;;
29240;SDS011;16268;49.880;8.648;2023-04-25T03:08:25;10.93;;;8.05;;
29240;SDS011;16268;49.880;8.648;2023-04-25T03:10:54;12.48;;;8.02;;
29240;SDS011;16268;49.880;8.648;2023-04-25T03:13:20;11.80;;;8.68;;
29240;SDS011;16268;49.880;8.648;2023-04-25T03:15:46;10.50;;;8.23;;
29240;SDS011;16268;49.880;8.648;2023-04-25T03:18:11;12.52;;;8.75;;
29240;SDS011;16268;49.880;8.648;2023-04-25T03:20:37;11.45;;;8.43;;
29240;SDS011;16268;49.880;8.648;2023-04-25T03:23:04;10.18;;;7.90;;
29240;SDS011;16268;49.880;8.648;2023-04-25T03:25:30;12.63;;;9.15;;
29240;SDS011;16268;49.880;8.648;2023-04-25T03:27:56;11.15;;;7.70;;
29240;SDS011;16268;49.880;8.648;2023-04-25T03:30:21;13.00;;;9.13;;
29240;SDS011;16268;49.880;8.648;2023-04-25T03:32:47;11.85;;;8.60;;
29240;SDS011;16268;49.880;8.648;2023-04-25T03:35:12;14.25;;;9.82;;
29240;SDS011;16268;49.880;8.648;2023-04-25T03:37:38;13.23;;;9.20;;
29240;SDS011;16268;49.880;8.648;2023-04-25T03:40:07;10.63;;;8.50;;
29240;SDS011;16268;49.880;8.648;2023-04-25T03:42:33;11.95;;;9.00;;
29240;SDS011;16268;49.880;8.648;2023-04-25T03:44:59;12.05;;;9.00;;
29240;SDS011;16268;49.880;8.648;2023-04-25T03:47:24;11.65;;;8.60;;
29240;SDS011;16268;49.880;8.648;2023-04-25T03:49:50;12.40;;;9.38;;
29240;SDS011;16268;49.880;8.648;2023-04-25T03:52:16;11.02;;;8.65;;
29240;SDS011;16268;49.880;8.648;2023-04-25T03:54:42;12.02;;;9.02;;
29240;SDS011;16268;49.880;8.648;2023-04-25T03:57:10;12.70;;;8.93;;
29240;SDS011;16268;49.880;8.648;2023-04-25T03:59:36;12.65;;;9.18;;
29240;SDS011;16268;49.880;8.648;2023-04-25T04:02:01;12.32;;;9.05;;
29240;SDS011;16268;49.880;8.648;2023-04-25T04:04:27;13.63;;;9.05;;
29240;SDS011;16268;49.880;8.648;2023-04-25T04:06:52;11.75;;;8.63;;
29240;SDS011;16268;49.880;8.648;2023-04-25T04:09:18;12.07;;;9.07;;
29240;SDS011;16268;49.880;8.648;2023-04-25T04:11:44;13.30;;;9.30;;
29240;SDS011;16268;49.880;8.648;2023-04-25T04:14:13;12.45;;;9.43;;
29240;SDS011;16268;49.880;8.648;2023-04-25T04:16:39;13.20;;;9.43;;
29240;SDS011;16268;49.880;8.648;2023-04-25T04:19:04;12.93;;;9.32;;
29240;SDS011;16268;49.880;8.648;2023-04-25T04:21:30;12.02;;;9.00;;
29240;SDS011;16268;49.880;8.648;2023-04-25T04:23:56;11.70;;;9.10;;
29240;SDS011;16268;49.880;8.648;2023-04-25T04:26:22;11.27;;;8.68;;
29240;SDS011;16268;49.880;8.648;2023-04-25T04:28:51;12.23;;;8.52;;
29240;SDS011;16268;49.880;8.648;2023-04-25T04:31:19;12.40;;;8.70;;
29240;SDS011;16268;49.880;8.648;2023-04-25T04:33:47;14.20;;;9.13;;
29240;SDS011;16268;49.880;8.648;2023-04-25T04:36:13;13.05;;;9.23;;
29240;SDS011;16268;49.880;8.648;2023-04-25T04:38:39;14.35;;;8.95;;
29240;SDS011;16268;49.880;8.648;2023-04-25T04:41:05;14.57;;;9.23;;
29240;SDS011;16268;49.880;8.648;2023-04-25T04:43:30;14.55;;;9.13;;
29240;SDS011;16268;49.880;8.648;2023-04-25T04:45:58;14.82;;;9.95;;
29240;SDS011;16268;49.880;8.648;2023-04-25T04:48:25;13.18;;;9.35;;
29240;SDS011;16268;49.880;8.648;2023-04-25T04:50:51;16.13;;;9.23;;
29240;SDS011;16268;49.880;8.648;2023-04-25T04:53:16;15.00;;;9.02;;
29240;SDS011;16268;49.880;8.648;2023-04-25T04:55:42;15.95;;;9.25;;
29240;SDS011;16268;49.880;8.648;2023-04-25T04:58:07;14.48;;;9.00;;
29240;SDS011;16268;49.880;8.648;2023-04-25T05:00:33;14.32;;;8.88;;
29240;SDS011;16268;49.880;8.648;2023-04-25T05:02:59;16.02;;;9.52;;
29240;SDS011;16268;49.880;8.648;2023-04-25T05:05:24;15.00;;;9.25;;
29240;SDS011;16268;49.880;8.648;2023-04-25T05:07:50;16.23;;;9.02;;
29240;SDS011;16268;49.880;8.648;2023-04-25T05:10:17;14.68;;;8.68;;
29240;SDS011;16268;49.880;8.648;2023-04-25T05:12:43;17.55;;;8.30;;
29240;SDS011;16268;49.880;8.648;2023-04-25T05:15:09;16.48;;;7.80;;
29240;SDS011;16268;49.880;8.648;2023-04-25T05:17:35;13.23;;;6.75;;
29240;SDS011;16268;49.880;8.648;2023-04-25T05:20:01;14.68;;;7.40;;
29240;SDS011;16268;49.880;8.648;2023-04-25T05:22:27;14.35;;;7.55;;
29240;SDS011;16268;49.880;8.648;2023-04-25T05:24:53;12.40;;;7.70;;
29240;SDS011;16268;49.880;8.648;2023-04-25T05:27:18;17.30;;;7.57;;
29240;SDS011;16268;49.880;8.648;2023-04-25T05:29:44;16.48;;;7.75;;
29240;SDS011;16268;49.880;8.648;2023-04-25T05:32:10;15.52;;;7.18;;
29240;SDS011;16268;49.880;8.648;2023-04-25T05:34:36;17.88;;;8.30;;
29240;SDS011;16268;49.880;8.648;2023-04-25T05:37:01;15.18;;;7.95;;
29240;SDS011;16268;49.880;8.648;2023-04-25T05:39:27;15.63;;;7.72;;
29240;SDS011;16268;49.880;8.648;2023-04-25T05:41:53;15.40;;;7.40;;
29240;SDS011;16268;49.880;8.648;2023-04-25T05:44:19;14.90;;;7.13;;
29240;SDS011;16268;49.880;8.648;2023-04-25T05:46:44;18.10;;;7.60;;
29240;SDS011;16268;49.880;8.648;2023-04-25T05:49:10;14.90;;;7.40;;
29240;SDS011;16268;49.880;8.648;2023-04-25T05:51:35;15.25;;;8.55;;
29240;SDS011;16268;49.880;8.648;2023-04-25T05:54:01;17.70;;;7.57;;
29240;SDS011;16268;49.880;8.648;2023-04-25T05:56:26;16.52;;;7.90;;
29240;SDS011;16268;49.880;8.648;2023-04-25T05:58:52;16.63;;;8.32;;
29240;SDS011;16268;49.880;8.648;2023-04-25T06:01:18;23.00;;;9.57;;
29240;SDS011;16268;49.880;8.648;2023-04-25T06:03:43;19.52;;;7.70;;
29240;SDS011;16268;49.880;8.648;2023-04-25T06:06:13;14.75;;;7.60;;
29240;SDS011;16268;49.880;8.648;2023-04-25T06:08:39;13.45;;;6.90;;
29240;SDS011;16268;49.880;8.648;2023-04-25T06:11:05;18.65;;;7.43;;
29240;SDS011;16268;49.880;8.648;2023-04-25T06:13:31;16.25;;;8.30;;
29240;SDS011;16268;49.880;8.648;2023-04-25T06:15:56;18.67;;;8.45;;
29240;SDS011;16268;49.880;8.648;2023-04-25T06:18:22;13.43;;;7.47;;
29240;SDS011;16268;49.880;8.648;2023-04-25T06:20:47;15.95;;;7.47;;
29240;SDS011;16268;49.880;8.648;2023-04-25T06:23:13;18.38;;;7.55;;
29240;SDS011;16268;49.880;8.648;2023-04-25T06:25:38;13.15;;;6.38;;
29240;SDS011;16268;49.880;8.648;2023-04-25T06:28:04;16.17;;;6.75;;
29240;SDS011;16268;49.880;8.648;2023-04-25T06:30:29;15.68;;;6.40;;
29240;SDS011;16268;49.880;8.648;2023-04-25T06:32:55;12.23;;;5.47;;
29240;SDS011;16268;49.880;8.648;2023-04-25T06:35:21;13.75;;;5.90;;
29240;SDS011;16268;49.880;8.648;2023-04-25T06:37:47;13.98;;;5.70;;
29240;SDS011;16268;49.880;8.648;2023-04-25T06:40:12;14.93;;;5.30;;
29240;SDS011;16268;49.880;8.648;2023-04-25T06:42:38;15.77;;;5.80;;
29240;SDS011;16268;49.880;8.648;2023-04-25T06:45:03;12.55;;;5.70;;
29240;SDS011;16268;49.880;8.648;2023-04-25T06:47:30;12.55;;;5.00;;
29240;SDS011;16268;49.880;8.648;2023-04-25T06:49:55;11.20;;;5.28;;
29240;SDS011;16268;49.880;8.648;2023-04-25T06:52:21;10.85;;;4.90;;
29240;SDS011;16268;49.880;8.648;2023-04-25T06:54:46;10.55;;;5.40;;
29240;SDS011;16268;49.880;8.648;2023-04-25T06:57:12;10.80;;;5.05;;
29240;SDS011;16268;49.880;8.648;2023-04-25T06:59:38;11.75;;;5.55;;
29240;SDS011;16268;49.880;8.648;2023-04-25T07:02:03;11.93;;;4.90;;
29240;SDS011;16268;49.880;8.648;2023-04-25T07:04:29;11.10;;;4.90;;
29240;SDS011;16268;49.880;8.648;2023-04-25T07:06:55;13.40;;;5.25;;
29240;SDS011;16268;49.880;8.648;2023-04-25T07:09:21;11.95;;;4.38;;
29240;SDS011;16268;49.880;8.648;2023-04-25T07:11:47;15.52;;;5.07;;
29240;SDS011;16268;49.880;8.648;2023-04-25T07:14:12;10.35;;;4.70;;
29240;SDS011;16268;49.880;8.648;2023-04-25T07:16:38;15.88;;;4.65;;
29240;SDS011;16268;49.880;8.648;2023-04-25T07:19:04;12.23;;;4.57;;
29240;SDS011;16268;49.880;8.648;2023-04-25T07:21:29;10.95;;;5.40;;
29240;SDS011;16268;49.880;8.648;2023-04-25T07:23:56;10.05;;;4.70;;
29240;SDS011;16268;49.880;8.648;2023-04-25T07:26:22;13.18;;;4.63;;
29240;SDS011;16268;49.880;8.648;2023-04-25T07:28:47;11.60;;;4.63;;
29240;SDS011;16268;49.880;8.648;2023-04-25T07:31:15;8.80;;;4.40;;
29240;SDS011;16268;49.880;8.648;2023-04-25T07:33:43;10.38;;;5.10;;
29240;SDS011;16268;49.880;8.648;2023-04-25T07:36:12;14.02;;;5.45;;
29240;SDS011;16268;49.880;8.648;2023-04-25T07:38:38;9.25;;;4.93;;
29240;SDS011;16268;49.880;8.648;2023-04-25T07:41:04;12.57;;;5.28;;
29240;SDS011;16268;49.880;8.648;2023-04-25T07:43:29;12.05;;;5.10;;
29240;SDS011;16268;49.880;8.648;2023-04-25T07:45:55;11.05;;;5.05;;
29240;SDS011;16268;49.880;8.648;2023-04-25T07:48:21;11.00;;;5.10;;
29240;SDS011;16268;49.880;8.648;2023-04-25T07:50:47;9.05;;;4.97;;
29240;SDS011;16268;49.880;8.648;2023-04-25T07:53:12;10.57;;;4.40;;
29240;SDS011;16268;49.880;8.648;2023-04-25T07:55:38;12.93;;;4.55;;
29240;SDS011;16268;49.880;8.648;2023-04-25T07:58:05;10.55;;;4.50;;
29240;SDS011;16268;49.880;8.648;2023-04-25T08:00:31;12.10;;;4.90;;
29240;SDS011;16268;49.880;8.648;2023-04-25T08:02:57;11.80;;;4.38;;
29240;SDS011;16268;49.880;8.648;2023-04-25T08:05:22;9.48;;;3.35;;
29240;SDS011;16268;49.880;8.648;2023-04-25T08:07:51;15.63;;;7.40;;
29240;SDS011;16268;49.880;8.648;2023-04-25T08:10:17;8.20;;;3.30;;
29240;SDS011;16268;49.880;8.648;2023-04-25T08:12:42;7.28;;;3.45;;
29240;SDS011;16268;49.880;8.648;2023-04-25T08:15:08;8.25;;;3.00;;
29240;SDS011;16268;49.880;8.648;2023-04-25T08:17:34;7.10;;;2.92;;
29240;SDS011;16268;49.880;8.648;2023-04-25T08:20:00;8.75;;;2.85;;
29240;SDS011;16268;49.880;8.648;2023-04-25T08:22:26;6.32;;;2.90;;
29240;SDS011;16268;49.880;8.648;2023-04-25T08:24:51;7.53;;;2.38;;
29240;SDS011;16268;49.880;8.648;2023-04-25T08:27:19;6.97;;;2.47;;
29240;SDS011;16268;49.880;8.648;2023-04-25T08:29:45;7.43;;;2.50;;
29240;SDS011;16268;49.880;8.648;2023-04-25T08:32:11;9.80;;;3.63;;
29240;SDS011;16268;49.880;8.648;2023-04-25T08:34:36;7.30;;;2.78;;
29240;SDS011;16268;49.880;8.648;2023-04-25T08:37:04;9.23;;;2.65;;
29240;SDS011;16268;49.880;8.648;2023-04-25T08:39:30;6.93;;;2.70;;
29240;SDS011;16268;49.880;8.648;2023-04-25T08:41:56;7.78;;;2.60;;
29240;SDS011;16268;49.880;8.648;2023-04-25T08:44:21;5.00;;;2.25;;
29240;SDS011;16268;49.880;8.648;2023-04-25T08:46:48;7.85;;;2.35;;
29240;SDS011;16268;49.880;8.648;2023-04-25T08:49:15;7.38;;;2.78;;
29240;SDS011;16268;49.880;8.648;2023-04-25T08:51:46;6.35;;;2.40;;
29240;SDS011;16268;49.880;8.648;2023-04-25T08:54:12;7.78;;;2.72;;
29240;SDS011;16268;49.880;8.648;2023-04-25T08:56:45;5.13;;;2.28;;
29240;SDS011;16268;49.880;8.648;2023-04-25T08:59:12;5.53;;;2.70;;
29240;SDS011;16268;49.880;8.648;2023-04-25T09:01:38;9.40;;;2.70;;
29240;SDS011;16268;49.880;8.648;2023-04-25T09:04:04;8.15;;;2.67;;
29240;SDS011;16268;49.880;8.648;2023-04-25T09:06:30;6.88;;;2.60;;
29240;SDS011;16268;49.880;8.648;2023-04-25T09:09:06;6.15;;;2.30;;
29240;SDS011;16268;49.880;8.648;2023-04-25T09:11:33;7.68;;;3.05;;
29240;SDS011;16268;49.880;8.648;2023-04-25T09:14:10;8.07;;;2.65;;
29240;SDS011;16268;49.880;8.648;2023-04-25T09:21:58;5.45;;;2.17;;
29240;SDS011;16268;49.880;8.648;2023-04-25T09:24:42;5.50;;;2.33;;
29240;SDS011;16268;49.880;8.648;2023-04-25T09:27:11;4.80;;;2.13;;
29240;SDS011;16268;49.880;8.648;2023-04-25T09:29:42;7.03;;;2.47;;
29240;SDS011;16268;49.880;8.648;2023-04-25T09:32:15;5.57;;;1.83;;
29240;SDS011;16268;49.880;8.648;2023-04-25T09:34:41;4.40;;;2.00;;
29240;SDS011;16268;49.880;8.648;2023-04-25T09:37:09;4.53;;;2.13;;
29240;SDS011;16268;49.880;8.648;2023-04-25T09:39:36;5.45;;;2.38;;
29240;SDS011;16268;49.880;8.648;2023-04-25T09:42:02;6.65;;;2.15;;
29240;SDS011;16268;49.880;8.648;2023-04-25T09:44:29;5.47;;;2.38;;
29240;SDS011;16268;49.880;8.648;2023-04-25T09:46:54;6.30;;;2.38;;
29240;SDS011;16268;49.880;8.648;2023-04-25T09:49:20;5.28;;;2.38;;
29240;SDS011;16268;49.880;8.648;2023-04-25T09:51:56;7.57;;;2.72;;
29240;SDS011;16268;49.880;8.648;2023-04-25T09:54:23;5.57;;;2.53;;
29240;SDS011;16268;49.880;8.648;2023-04-25T09:56:51;7.72;;;2.78;;
29240;SDS011;16268;49.880;8.648;2023-04-25T09:59:19;7.30;;;2.60;;
29240;SDS011;16268;49.880;8.648;2023-04-25T10:01:46;7.07;;;2.70;;
29240;SDS011;16268;49.880;8.648;2023-04-25T10:04:13;8.27;;;2.67;;
29240;SDS011;16268;49.880;8.648;2023-04-25T10:06:48;7.90;;;2.72;;
29240;SDS011;16268;49.880;8.648;2023-04-25T10:09:14;6.38;;;2.55;;
29240;SDS011;16268;49.880;8.648;2023-04-25T10:11:40;5.75;;;2.90;;
29240;SDS011;16268;49.880;8.648;2023-04-25T10:14:06;7.10;;;3.03;;
29240;SDS011;16268;49.880;8.648;2023-04-25T10:16:31;5.75;;;2.45;;
29240;SDS011;16268;49.880;8.648;2023-04-25T10:18:58;6.97;;;2.58;;
29240;SDS011;16268;49.880;8.648;2023-04-25T10:21:23;7.63;;;2.45;;
29240;SDS011;16268;49.880;8.648;2023-04-25T10:23:52;7.28;;;2.58;;
29240;SDS011;16268;49.880;8.648;2023-04-25T10:26:18;8.52;;;2.90;;
29240;SDS011;16268;49.880;8.648;2023-04-25T10:29:00;6.30;;;3.13;;
29240;SDS011;16268;49.880;8.648;2023-04-25T10:31:27;8.32;;;4.05;;
29240;SDS011;16268;49.880;8.648;2023-04-25T10:33:55;8.30;;;3.33;;
29240;SDS011;16268;49.880;8.648;2023-04-25T10:36:21;7.00;;;3.40;;
29240;SDS011;16268;49.880;8.648;2023-04-25T10:38:50;8.63;;;3.50;;
29240;SDS011;16268;49.880;8.648;2023-04-25T10:41:19;8.43;;;3.50;;
29240;SDS011;16268;49.880;8.648;2023-04-25T10:43:46;7.13;;;3.58;;
29240;SDS011;16268;49.880;8.648;2023-04-25T10:46:22;10.63;;;3.90;;
29240;SDS011;16268;49.880;8.648;2023-04-25T10:48:53;8.20;;;3.47;;
29240;SDS011;16268;49.880;8.648;2023-04-25T10:54:02;6.35;;;3.28;;
29240;SDS011;16268;49.880;8.648;2023-04-25T11:01:41;9.15;;;3.65;;
29240;SDS011;16268;49.880;8.648;2023-04-25T11:04:24;8.52;;;4.10;;
29240;SDS011;16268;49.880;8.648;2023-04-25T11:09:34;8.32;;;3.95;;
29240;SDS011;16268;49.880;8.648;2023-04-25T11:12:01;8.30;;;3.90;;
29240;SDS011;16268;49.880;8.648;2023-04-25T11:14:27;7.72;;;3.47;;
29240;SDS011;16268;49.880;8.648;2023-04-25T11:16:53;7.30;;;3.63;;
29240;SDS011;16268;49.880;8.648;2023-04-25T11:19:20;5.88;;;2.97;;
29240;SDS011;16268;49.880;8.648;2023-04-25T11:21:47;5.93;;;3.20;;
29240;SDS011;16268;49.880;8.648;2023-04-25T11:24:12;5.65;;;3.08;;
29240;SDS011;16268;49.880;8.648;2023-04-25T11:26:38;10.48;;;3.38;;
29240;SDS011;16268;49.880;8.648;2023-04-25T11:29:06;8.30;;;3.60;;
29240;SDS011;16268;49.880;8.648;2023-04-25T11:31:32;8.15;;;3.35;;
29240;SDS011;16268;49.880;8.648;2023-04-25T11:33:57;7.18;;;3.75;;
29240;SDS011;16268;49.880;8.648;2023-04-25T11:36:23;8.15;;;3.88;;
29240;SDS011;16268;49.880;8.648;2023-04-25T11:38:51;9.63;;;3.38;;
29240;SDS011;16268;49.880;8.648;2023-04-25T11:41:17;7.32;;;3.90;;
29240;SDS011;16268;49.880;8.648;2023-04-25T11:43:43;8.60;;;4.00;;
29240;SDS011;16268;49.880;8.648;2023-04-25T11:46:09;8.50;;;3.72;;
29240;SDS011;16268;49.880;8.648;2023-04-25T11:48:38;8.73;;;4.60;;
29240;SDS011;16268;49.880;8.648;2023-04-25T11:53:30;8.27;;;3.97;;
29240;SDS011;16268;49.880;8.648;2023-04-25T11:55:56;7.93;;;3.58;;
29240;SDS011;16268;49.880;8.648;2023-04-25T11:58:22;10.35;;;3.80;;
29240;SDS011;16268;49.880;8.648;2023-04-25T12:00:48;7.97;;;4.22;;
29240;SDS011;16268;49.880;8.648;2023-04-25T12:03:13;9.38;;;4.03;;
29240;SDS011;16268;49.880;8.648;2023-04-25T12:05:39;5.82;;;3.10;;
29240;SDS011;16268;49.880;8.648;2023-04-25T12:08:11;9.95;;;3.67;;
29240;SDS011;16268;49.880;8.648;2023-04-25T12:10:38;9.65;;;4.22;;
29240;SDS011;16268;49.880;8.648;2023-04-25T12:13:18;7.70;;;3.47;;
29240;SDS011;16268;49.880;8.648;2023-04-25T12:15:51;10.05;;;3.85;;
29240;SDS011;16268;49.880;8.648;2023-04-25T12:18:19;7.82;;;3.50;;
29240;SDS011;16268;49.880;8.648;2023-04-25T12:20:46;11.68;;;3.92;;
29240;SDS011;16268;49.880;8.648;2023-04-25T12:23:11;9.77;;;3.65;;
29240;SDS011;16268;49.880;8.648;2023-04-25T12:25:38;10.23;;;3.28;;
29240;SDS011;16268;49.880;8.648;2023-04-25T12:28:13;8.27;;;3.50;;
29240;SDS011;16268;49.880;8.648;2023-04-25T12:30:58;11.38;;;3.47;;
29240;SDS011;16268;49.880;8.648;2023-04-25T12:33:29;10.05;;;3.70;;
29240;SDS011;16268;49.880;8.648;2023-04-25T12:35:56;8.93;;;3.30;;
29240;SDS011;16268;49.880;8.648;2023-04-25T12:40:53;9.82;;;3.40;;
29240;SDS011;16268;49.880;8.648;2023-04-25T12:43:19;10.00;;;3.30;;
29240;SDS011;16268;49.880;8.648;2023-04-25T12:45:48;9.35;;;3.40;;
29240;SDS011;16268;49.880;8.648;2023-04-25T12:48:15;12.18;;;3.47;;
29240;SDS011;16268;49.880;8.648;2023-04-25T12:50:41;8.40;;;3.08;;
29240;SDS011;16268;49.880;8.648;2023-04-25T12:53:08;7.22;;;2.88;;
29240;SDS011;16268;49.880;8.648;2023-04-25T12:55:34;8.65;;;3.15;;
29240;SDS011;16268;49.880;8.648;2023-04-25T12:57:59;7.25;;;2.85;;
29240;SDS011;16268;49.880;8.648;2023-04-25T13:00:25;6.97;;;3.20;;
29240;SDS011;16268;49.880;8.648;2023-04-25T13:02:51;8.77;;;3.42;;
29240;SDS011;16268;49.880;8.648;2023-04-25T13:05:17;9.85;;;2.72;;
29240;SDS011;16268;49.880;8.648;2023-04-25T13:07:42;7.78;;;2.92;;
29240;SDS011;16268;49.880;8.648;2023-04-25T13:10:08;7.60;;;2.70;;
29240;SDS011;16268;49.880;8.648;2023-04-25T13:12:33;6.93;;;2.75;;
29240;SDS011;16268;49.880;8.648;2023-04-25T13:14:59;7.90;;;2.60;;
29240;SDS011;16268;49.880;8.648;2023-04-25T13:17:24;8.75;;;2.55;;
29240;SDS011;16268;49.880;8.648;2023-04-25T13:19:50;6.60;;;2.45;;
29240;SDS011;16268;49.880;8.648;2023-04-25T13:22:16;9.50;;;2.63;;
29240;SDS011;16268;49.880;8.648;2023-04-25T13:24:45;9.70;;;3.08;;
29240;SDS011;16268;49.880;8.648;2023-04-25T13:27:11;6.07;;;2.50;;
29240;SDS011;16268;49.880;8.648;2023-04-25T13:29:37;6.70;;;2.78;;
29240;SDS011;16268;49.880;8.648;2023-04-25T13:32:05;7.00;;;2.90;;
29240;SDS011;16268;49.880;8.648;2023-04-25T13:34:31;8.65;;;2.50;;
29240;SDS011;16268;49.880;8.648;2023-04-25T13:36:57;6.30;;;2.35;;
29240;SDS011;16268;49.880;8.648;2023-04-25T13:39:23;6.72;;;2.70;;
29240;SDS011;16268;49.880;8.648;2023-04-25T13:41:49;8.40;;;2.60;;
29240;SDS011;16268;49.880;8.648;2023-04-25T13:44:14;8.85;;;2.78;;
29240;SDS011;16268;49.880;8.648;2023-04-25T13:46:40;6.22;;;2.70;;
29240;SDS011;16268;49.880;8.648;2023-04-25T13:49:06;8.20;;;2.63;;
29240;SDS011;16268;49.880;8.648;2023-04-25T13:51:31;8.55;;;2.65;;
29240;SDS011;16268;49.880;8.648;2023-04-25T13:53:57;9.32;;;2.45;;
29240;SDS011;16268;49.880;8.648;2023-04-25T13:56:23;8.52;;;2.78;;
29240;SDS011;16268;49.880;8.648;2023-04-25T13:58:49;7.63;;;2.63;;
29240;SDS011;16268;49.880;8.648;2023-04-25T14:01:16;10.45;;;2.75;;
29240;SDS011;16268;49.880;8.648;2023-04-25T14:03:42;10.30;;;2.90;;
29240;SDS011;16268;49.880;8.648;2023-04-25T14:06:07;7.45;;;2.50;;
29240;SDS011;16268;49.880;8.648;2023-04-25T14:08:33;10.05;;;2.70;;
29240;SDS011;16268;49.880;8.648;2023-04-25T14:10:59;8.73;;;2.63;;
29240;SDS011;16268;49.880;8.648;2023-04-25T14:13:25;7.40;;;2.42;;
29240;SDS011;16268;49.880;8.648;2023-04-25T14:15:51;9.43;;;2.38;;
29240;SDS011;16268;49.880;8.648;2023-04-25T14:18:17;9.05;;;2.78;;
29240;SDS011;16268;49.880;8.648;2023-04-25T14:20:43;10.32;;;4.18;;
29240;SDS011;16268;49.880;8.648;2023-04-25T14:23:09;6.03;;;2.58;;
29240;SDS011;16268;49.880;8.648;2023-04-25T14:25:35;12.13;;;3.47;;
29240;SDS011;16268;49.880;8.648;2023-04-25T14:28:01;8.63;;;2.72;;
29240;SDS011;16268;49.880;8.648;2023-04-25T14:30:27;6.00;;;2.33;;
29240;SDS011;16268;49.880;8.648;2023-04-25T14:32:53;7.18;;;2.53;;
29240;SDS011;16268;49.880;8.648;2023-04-25T14:35:19;9.63;;;4.55;;
29240;SDS011;16268;49.880;8.648;2023-04-25T14:37:45;11.25;;;4.53;;
29240;SDS011;16268;49.880;8.648;2023-04-25T14:40:11;9.43;;;3.13;;
29240;SDS011;16268;49.880;8.648;2023-04-25T14:42:38;12.13;;;4.68;;
29240;SDS011;16268;49.880;8.648;2023-04-25T14:45:05;7.32;;;2.78;;
29240;SDS011;16268;49.880;8.648;2023-04-25T14:47:32;10.90;;;2.75;;
29240;SDS011;16268;49.880;8.648;2023-04-25T14:49:58;8.38;;;3.65;;
29240;SDS011;16268;49.880;8.648;2023-04-25T14:52:24;7.18;;;2.47;;
29240;SDS011;16268;49.880;8.648;2023-04-25T14:54:50;6.68;;;2.70;;
29240;SDS011;16268;49.880;8.648;2023-04-25T14:57:16;8.82;;;3.03;;
29240;SDS011;16268;49.880;8.648;2023-04-25T14:59:41;6.97;;;2.63;;
29240;SDS011;16268;49.880;8.648;2023-04-25T15:02:07;8.10;;;2.83;;